sensor_id;sensor_type;location;lat;lon;timestamp;P1;durP1;ratioP1;P2;durP2;ratioP2
84474;SDS011;74699;43.068;0.152;2023-12-29T00:02:18;2.55;;;0.65;;
84474;SDS011;74699;43.068;0.152;2023-12-29T00:04:44;2.78;;;1.10;;
84474;SDS011;74699;43.068;0.152;2023-12-29T00:07:10;2.33;;;0.80;;
84474;SDS011;74699;43.068;0.152;2023-12-29T00:09:36;2.58;;;0.73;;
84474;SDS011;74699;43.068;0.152;2023-12-29T00:12:06;2.53;;;0.93;;
84474;SDS011;74699;43.068;0.152;2023-12-29T00:14:32;2.38;;;0.80;;
84474;SDS011;74699;43.068;0.152;2023-12-29T00:16:58;3.30;;;0.70;;
84474;SDS011;74699;43.068;0.152;2023-12-29T00:19:25;2.13;;;0.65;;
84474;SDS011;74699;43.068;0.152;2023-12-29T00:21:51;1.90;;;0.65;;
84474;SDS011;74699;43.068;0.152;2023-12-29T00:24:17;4.07;;;1.13;;
84474;SDS011;74699;43.068;0.152;2023-12-29T00:26:43;3.03;;;0.90;;
84474;SDS011;74699;43.068;0.152;2023-12-29T00:29:09;2.50;;;0.65;;
84474;SDS011;74699;43.068;0.152;2023-12-29T00:31:35;1.67;;;0.50;;
84474;SDS011;74699;43.068;0.152;2023-12-29T00:34:01;2.33;;;0.60;;
84474;SDS011;74699;43.068;0.152;2023-12-29T00:36:27;2.80;;;0.77;;
84474;SDS011;74699;43.068;0.152;2023-12-29T00:38:53;3.10;;;0.90;;
84474;SDS011;74699;43.068;0.152;2023-12-29T00:41:19;1.67;;;0.50;;
84474;SDS011;74699;43.068;0.152;2023-12-29T00:43:45;2.10;;;0.60;;
84474;SDS011;74699;43.068;0.152;2023-12-29T00:46:13;3.00;;;0.77;;
84474;SDS011;74699;43.068;0.152;2023-12-29T00:48:41;2.10;;;0.50;;
84474;SDS011;74699;43.068;0.152;2023-12-29T00:51:07;1.48;;;0.40;;
84474;SDS011;74699;43.068;0.152;2023-12-29T00:53:36;2.40;;;0.60;;
84474;SDS011;74699;43.068;0.152;2023-12-29T00:56:02;1.73;;;0.60;;
84474;SDS011;74699;43.068;0.152;2023-12-29T00:58:29;1.42;;;0.57;;
84474;SDS011;74699;43.068;0.152;2023-12-29T01:00:55;2.45;;;0.60;;
84474;SDS011;74699;43.068;0.152;2023-12-29T01:03:21;1.65;;;0.40;;
84474;SDS011;74699;43.068;0.152;2023-12-29T01:05:47;1.67;;;0.40;;
84474;SDS011;74699;43.068;0.152;2023-12-29T01:08:13;1.27;;;0.30;;
84474;SDS011;74699;43.068;0.152;2023-12-29T01:10:39;1.60;;;0.40;;
84474;SDS011;74699;43.068;0.152;2023-12-29T01:13:05;0.75;;;0.17;;
84474;SDS011;74699;43.068;0.152;2023-12-29T01:15:31;1.02;;;0.30;;
84474;SDS011;74699;43.068;0.152;2023-12-29T01:17:57;1.02;;;0.47;;
84474;SDS011;74699;43.068;0.152;2023-12-29T01:20:23;0.95;;;0.40;;
84474;SDS011;74699;43.068;0.152;2023-12-29T01:22:49;1.60;;;0.30;;
84474;SDS011;74699;43.068;0.152;2023-12-29T01:25:15;1.25;;;0.40;;
84474;SDS011;74699;43.068;0.152;2023-12-29T01:27:41;2.05;;;0.50;;
84474;SDS011;74699;43.068;0.152;2023-12-29T01:30:08;0.73;;;0.28;;
84474;SDS011;74699;43.068;0.152;2023-12-29T01:32:34;1.40;;;0.28;;
84474;SDS011;74699;43.068;0.152;2023-12-29T01:35:00;1.85;;;0.60;;
84474;SDS011;74699;43.068;0.152;2023-12-29T01:37:26;1.55;;;0.30;;
84474;SDS011;74699;43.068;0.152;2023-12-29T01:39:52;1.10;;;0.35;;
84474;SDS011;74699;43.068;0.152;2023-12-29T01:42:18;1.13;;;0.30;;
84474;SDS011;74699;43.068;0.152;2023-12-29T01:44:44;1.05;;;0.30;;
84474;SDS011;74699;43.068;0.152;2023-12-29T01:47:13;2.85;;;0.60;;
84474;SDS011;74699;43.068;0.152;2023-12-29T01:49:41;1.63;;;0.40;;
84474;SDS011;74699;43.068;0.152;2023-12-29T01:52:08;1.02;;;0.32;;
84474;SDS011;74699;43.068;0.152;2023-12-29T01:54:35;1.88;;;0.43;;
84474;SDS011;74699;43.068;0.152;2023-12-29T01:57:03;1.02;;;0.40;;
84474;SDS011;74699;43.068;0.152;2023-12-29T01:59:29;1.75;;;0.40;;
84474;SDS011;74699;43.068;0.152;2023-12-29T02:01:56;2.03;;;0.57;;
84474;SDS011;74699;43.068;0.152;2023-12-29T02:04:23;0.85;;;0.28;;
84474;SDS011;74699;43.068;0.152;2023-12-29T02:06:50;1.63;;;0.70;;
84474;SDS011;74699;43.068;0.152;2023-12-29T02:09:16;2.95;;;0.40;;
84474;SDS011;74699;43.068;0.152;2023-12-29T02:11:44;1.67;;;0.40;;
84474;SDS011;74699;43.068;0.152;2023-12-29T02:14:10;1.25;;;0.22;;
84474;SDS011;74699;43.068;0.152;2023-12-29T02:22:05;2.45;;;0.60;;
84474;SDS011;74699;43.068;0.152;2023-12-29T02:24:35;1.27;;;0.38;;
84474;SDS011;74699;43.068;0.152;2023-12-29T02:27:03;1.13;;;0.20;;
84474;SDS011;74699;43.068;0.152;2023-12-29T02:29:31;1.13;;;0.25;;
84474;SDS011;74699;43.068;0.152;2023-12-29T02:31:59;1.02;;;0.30;;
84474;SDS011;74699;43.068;0.152;2023-12-29T02:34:25;1.33;;;0.40;;
84474;SDS011;74699;43.068;0.152;2023-12-29T02:36:52;1.13;;;0.30;;
84474;SDS011;74699;43.068;0.152;2023-12-29T02:39:19;0.82;;;0.40;;
84474;SDS011;74699;43.068;0.152;2023-12-29T02:41:45;1.27;;;0.50;;
84474;SDS011;74699;43.068;0.152;2023-12-29T02:44:11;1.80;;;0.50;;
84474;SDS011;74699;43.068;0.152;2023-12-29T02:46:37;1.77;;;0.50;;
84474;SDS011;74699;43.068;0.152;2023-12-29T02:49:03;0.85;;;0.30;;
84474;SDS011;74699;43.068;0.152;2023-12-29T02:51:29;2.10;;;0.50;;
84474;SDS011;74699;43.068;0.152;2023-12-29T02:53:55;1.92;;;0.40;;
84474;SDS011;74699;43.068;0.152;2023-12-29T02:56:22;1.42;;;0.40;;
84474;SDS011;74699;43.068;0.152;2023-12-29T02:58:48;1.92;;;0.40;;
84474;SDS011;74699;43.068;0.152;2023-12-29T03:01:14;1.55;;;0.30;;
84474;SDS011;74699;43.068;0.152;2023-12-29T03:03:40;0.17;;;0.17;;
84474;SDS011;74699;43.068;0.152;2023-12-29T03:06:06;1.45;;;0.57;;
84474;SDS011;74699;43.068;0.152;2023-12-29T03:08:32;2.05;;;0.65;;
84474;SDS011;74699;43.068;0.152;2023-12-29T03:10:58;1.13;;;0.30;;
84474;SDS011;74699;43.068;0.152;2023-12-29T03:13:24;2.17;;;0.50;;
84474;SDS011;74699;43.068;0.152;2023-12-29T03:15:50;3.17;;;0.77;;
84474;SDS011;74699;43.068;0.152;2023-12-29T03:18:16;2.67;;;0.60;;
84474;SDS011;74699;43.068;0.152;2023-12-29T03:20:42;2.83;;;0.55;;
84474;SDS011;74699;43.068;0.152;2023-12-29T03:23:08;2.55;;;0.90;;
84474;SDS011;74699;43.068;0.152;2023-12-29T03:25:36;2.95;;;0.80;;
84474;SDS011;74699;43.068;0.152;2023-12-29T03:28:02;2.15;;;0.52;;
84474;SDS011;74699;43.068;0.152;2023-12-29T03:30:28;3.33;;;0.73;;
84474;SDS011;74699;43.068;0.152;2023-12-29T03:32:54;2.03;;;0.57;;
84474;SDS011;74699;43.068;0.152;2023-12-29T03:35:20;2.78;;;0.90;;
84474;SDS011;74699;43.068;0.152;2023-12-29T03:37:46;1.60;;;0.50;;
84474;SDS011;74699;43.068;0.152;2023-12-29T03:40:12;2.60;;;0.68;;
84474;SDS011;74699;43.068;0.152;2023-12-29T03:42:39;1.92;;;0.40;;
84474;SDS011;74699;43.068;0.152;2023-12-29T03:45:05;1.45;;;0.50;;
84474;SDS011;74699;43.068;0.152;2023-12-29T03:47:31;0.95;;;0.30;;
84474;SDS011;74699;43.068;0.152;2023-12-29T03:49:57;1.83;;;0.60;;
84474;SDS011;74699;43.068;0.152;2023-12-29T03:52:23;0.93;;;0.30;;
84474;SDS011;74699;43.068;0.152;2023-12-29T03:54:49;2.10;;;0.50;;
84474;SDS011;74699;43.068;0.152;2023-12-29T03:57:15;1.80;;;0.40;;
84474;SDS011;74699;43.068;0.152;2023-12-29T03:59:41;2.58;;;0.50;;
84474;SDS011;74699;43.068;0.152;2023-12-29T04:02:07;1.00;;;0.32;;
84474;SDS011;74699;43.068;0.152;2023-12-29T04:04:36;1.45;;;0.30;;
84474;SDS011;74699;43.068;0.152;2023-12-29T04:07:03;1.40;;;0.40;;
84474;SDS011;74699;43.068;0.152;2023-12-29T04:09:29;1.02;;;0.30;;
84474;SDS011;74699;43.068;0.152;2023-12-29T04:11:55;1.58;;;0.43;;
84474;SDS011;74699;43.068;0.152;2023-12-29T04:14:21;1.23;;;0.40;;
84474;SDS011;74699;43.068;0.152;2023-12-29T04:16:47;1.70;;;0.43;;
84474;SDS011;74699;43.068;0.152;2023-12-29T04:19:13;0.70;;;0.17;;
84474;SDS011;74699;43.068;0.152;2023-12-29T04:21:39;0.45;;;0.20;;
84474;SDS011;74699;43.068;0.152;2023-12-29T04:24:05;1.58;;;0.40;;
84474;SDS011;74699;43.068;0.152;2023-12-29T04:26:35;2.17;;;0.52;;
84474;SDS011;74699;43.068;0.152;2023-12-29T04:29:02;1.48;;;0.50;;
84474;SDS011;74699;43.068;0.152;2023-12-29T04:31:28;1.65;;;0.20;;
84474;SDS011;74699;43.068;0.152;2023-12-29T04:33:54;1.08;;;0.38;;
84474;SDS011;74699;43.068;0.152;2023-12-29T04:36:20;1.63;;;0.50;;
84474;SDS011;74699;43.068;0.152;2023-12-29T04:38:46;2.00;;;0.40;;
84474;SDS011;74699;43.068;0.152;2023-12-29T04:41:12;1.88;;;0.40;;
84474;SDS011;74699;43.068;0.152;2023-12-29T04:43:39;0.95;;;0.30;;
84474;SDS011;74699;43.068;0.152;2023-12-29T04:46:05;2.13;;;0.40;;
84474;SDS011;74699;43.068;0.152;2023-12-29T04:48:32;1.42;;;0.40;;
84474;SDS011;74699;43.068;0.152;2023-12-29T04:50:58;1.00;;;0.30;;
84474;SDS011;74699;43.068;0.152;2023-12-29T04:53:24;1.85;;;0.32;;
84474;SDS011;74699;43.068;0.152;2023-12-29T04:55:50;1.60;;;0.45;;
84474;SDS011;74699;43.068;0.152;2023-12-29T04:58:16;2.65;;;0.50;;
84474;SDS011;74699;43.068;0.152;2023-12-29T05:00:42;2.03;;;0.50;;
84474;SDS011;74699;43.068;0.152;2023-12-29T05:03:08;1.50;;;0.50;;
84474;SDS011;74699;43.068;0.152;2023-12-29T05:05:34;1.75;;;0.50;;
84474;SDS011;74699;43.068;0.152;2023-12-29T05:08:00;1.90;;;0.30;;
84474;SDS011;74699;43.068;0.152;2023-12-29T05:10:26;2.10;;;0.50;;
84474;SDS011;74699;43.068;0.152;2023-12-29T05:12:52;1.27;;;0.50;;
84474;SDS011;74699;43.068;0.152;2023-12-29T05:15:18;1.58;;;0.40;;
84474;SDS011;74699;43.068;0.152;2023-12-29T05:17:44;1.52;;;0.57;;
84474;SDS011;74699;43.068;0.152;2023-12-29T05:20:10;2.42;;;0.60;;
84474;SDS011;74699;43.068;0.152;2023-12-29T05:22:36;2.70;;;0.50;;
84474;SDS011;74699;43.068;0.152;2023-12-29T05:25:03;2.22;;;0.57;;
84474;SDS011;74699;43.068;0.152;2023-12-29T05:27:29;2.13;;;0.60;;
84474;SDS011;74699;43.068;0.152;2023-12-29T05:29:55;2.90;;;0.60;;
84474;SDS011;74699;43.068;0.152;2023-12-29T05:32:21;3.00;;;0.60;;
84474;SDS011;74699;43.068;0.152;2023-12-29T05:34:47;2.05;;;0.60;;
84474;SDS011;74699;43.068;0.152;2023-12-29T05:37:13;3.40;;;1.17;;
84474;SDS011;74699;43.068;0.152;2023-12-29T05:39:41;2.45;;;0.70;;
84474;SDS011;74699;43.068;0.152;2023-12-29T05:42:08;2.88;;;0.60;;
84474;SDS011;74699;43.068;0.152;2023-12-29T05:44:37;1.90;;;0.45;;
84474;SDS011;74699;43.068;0.152;2023-12-29T05:47:04;2.05;;;0.52;;
84474;SDS011;74699;43.068;0.152;2023-12-29T05:49:30;2.05;;;0.77;;
84474;SDS011;74699;43.068;0.152;2023-12-29T05:51:57;2.17;;;0.57;;
84474;SDS011;74699;43.068;0.152;2023-12-29T05:54:23;2.55;;;0.50;;
84474;SDS011;74699;43.068;0.152;2023-12-29T05:56:49;1.90;;;0.63;;
84474;SDS011;74699;43.068;0.152;2023-12-29T05:59:15;1.48;;;0.60;;
84474;SDS011;74699;43.068;0.152;2023-12-29T06:01:41;1.27;;;0.50;;
84474;SDS011;74699;43.068;0.152;2023-12-29T06:04:08;2.42;;;0.93;;
84474;SDS011;74699;43.068;0.152;2023-12-29T06:06:34;1.85;;;0.50;;
84474;SDS011;74699;43.068;0.152;2023-12-29T06:09:00;2.85;;;0.60;;
84474;SDS011;74699;43.068;0.152;2023-12-29T06:11:26;1.55;;;0.60;;
84474;SDS011;74699;43.068;0.152;2023-12-29T06:13:52;3.05;;;0.75;;
84474;SDS011;74699;43.068;0.152;2023-12-29T06:16:18;1.27;;;0.50;;
84474;SDS011;74699;43.068;0.152;2023-12-29T06:18:45;2.47;;;0.80;;
84474;SDS011;74699;43.068;0.152;2023-12-29T06:21:11;2.85;;;1.08;;
84474;SDS011;74699;43.068;0.152;2023-12-29T06:23:37;3.00;;;1.33;;
84474;SDS011;74699;43.068;0.152;2023-12-29T06:26:03;2.53;;;1.15;;
84474;SDS011;74699;43.068;0.152;2023-12-29T06:28:29;2.67;;;1.10;;
84474;SDS011;74699;43.068;0.152;2023-12-29T06:30:55;3.40;;;1.10;;
84474;SDS011;74699;43.068;0.152;2023-12-29T06:33:21;2.53;;;0.90;;
84474;SDS011;74699;43.068;0.152;2023-12-29T06:35:47;2.20;;;0.70;;
84474;SDS011;74699;43.068;0.152;2023-12-29T06:38:14;2.97;;;1.20;;
84474;SDS011;74699;43.068;0.152;2023-12-29T06:40:40;2.45;;;0.80;;
84474;SDS011;74699;43.068;0.152;2023-12-29T06:43:06;2.58;;;1.00;;
84474;SDS011;74699;43.068;0.152;2023-12-29T06:45:32;2.88;;;1.00;;
84474;SDS011;74699;43.068;0.152;2023-12-29T06:47:58;2.50;;;0.85;;
84474;SDS011;74699;43.068;0.152;2023-12-29T06:50:24;3.33;;;1.25;;
84474;SDS011;74699;43.068;0.152;2023-12-29T06:52:50;2.78;;;1.10;;
84474;SDS011;74699;43.068;0.152;2023-12-29T06:55:16;3.50;;;0.80;;
84474;SDS011;74699;43.068;0.152;2023-12-29T06:57:42;2.60;;;0.85;;
84474;SDS011;74699;43.068;0.152;2023-12-29T07:00:08;3.65;;;1.20;;
84474;SDS011;74699;43.068;0.152;2023-12-29T07:02:37;4.00;;;1.85;;
84474;SDS011;74699;43.068;0.152;2023-12-29T07:05:04;2.85;;;1.40;;
84474;SDS011;74699;43.068;0.152;2023-12-29T07:07:30;2.90;;;1.10;;
84474;SDS011;74699;43.068;0.152;2023-12-29T07:09:56;3.65;;;1.20;;
84474;SDS011;74699;43.068;0.152;2023-12-29T07:12:22;3.88;;;1.50;;
84474;SDS011;74699;43.068;0.152;2023-12-29T07:14:48;3.72;;;1.70;;
84474;SDS011;74699;43.068;0.152;2023-12-29T07:17:14;4.72;;;2.00;;
84474;SDS011;74699;43.068;0.152;2023-12-29T07:19:40;3.67;;;1.83;;
84474;SDS011;74699;43.068;0.152;2023-12-29T07:22:06;5.28;;;2.40;;
84474;SDS011;74699;43.068;0.152;2023-12-29T07:24:32;2.85;;;1.25;;
84474;SDS011;74699;43.068;0.152;2023-12-29T07:27:00;2.47;;;1.30;;
84474;SDS011;74699;43.068;0.152;2023-12-29T07:29:26;2.70;;;1.00;;
84474;SDS011;74699;43.068;0.152;2023-12-29T07:31:52;2.33;;;1.00;;
84474;SDS011;74699;43.068;0.152;2023-12-29T07:34:18;1.75;;;0.88;;
84474;SDS011;74699;43.068;0.152;2023-12-29T07:36:44;2.58;;;1.30;;
84474;SDS011;74699;43.068;0.152;2023-12-29T07:39:10;4.00;;;1.00;;
84474;SDS011;74699;43.068;0.152;2023-12-29T07:41:40;3.20;;;1.20;;
84474;SDS011;74699;43.068;0.152;2023-12-29T07:44:10;3.90;;;1.50;;
84474;SDS011;74699;43.068;0.152;2023-12-29T07:46:37;3.30;;;1.30;;
84474;SDS011;74699;43.068;0.152;2023-12-29T07:49:04;2.70;;;1.38;;
84474;SDS011;74699;43.068;0.152;2023-12-29T07:51:30;2.75;;;1.70;;
84474;SDS011;74699;43.068;0.152;2023-12-29T07:53:56;1.90;;;1.02;;
84474;SDS011;74699;43.068;0.152;2023-12-29T07:56:22;2.88;;;1.45;;
84474;SDS011;74699;43.068;0.152;2023-12-29T07:58:48;1.85;;;0.95;;
84474;SDS011;74699;43.068;0.152;2023-12-29T08:01:15;4.00;;;1.67;;
84474;SDS011;74699;43.068;0.152;2023-12-29T08:03:41;2.45;;;1.20;;
84474;SDS011;74699;43.068;0.152;2023-12-29T08:06:07;3.67;;;1.65;;
84474;SDS011;74699;43.068;0.152;2023-12-29T08:08:33;1.92;;;1.00;;
84474;SDS011;74699;43.068;0.152;2023-12-29T08:10:59;2.75;;;1.10;;
84474;SDS011;74699;43.068;0.152;2023-12-29T08:13:25;2.97;;;1.50;;
84474;SDS011;74699;43.068;0.152;2023-12-29T08:15:51;3.97;;;1.55;;
84474;SDS011;74699;43.068;0.152;2023-12-29T08:18:17;2.65;;;1.30;;
84474;SDS011;74699;43.068;0.152;2023-12-29T08:20:43;3.83;;;1.42;;
84474;SDS011;74699;43.068;0.152;2023-12-29T08:23:09;3.42;;;1.40;;
84474;SDS011;74699;43.068;0.152;2023-12-29T08:25:35;3.58;;;1.63;;
84474;SDS011;74699;43.068;0.152;2023-12-29T08:28:04;3.80;;;1.75;;
84474;SDS011;74699;43.068;0.152;2023-12-29T08:30:33;3.13;;;1.70;;
84474;SDS011;74699;43.068;0.152;2023-12-29T08:33:00;3.42;;;1.73;;
84474;SDS011;74699;43.068;0.152;2023-12-29T08:35:26;4.18;;;1.65;;
84474;SDS011;74699;43.068;0.152;2023-12-29T08:37:52;4.97;;;1.70;;
84474;SDS011;74699;43.068;0.152;2023-12-29T08:40:18;3.40;;;1.55;;
84474;SDS011;74699;43.068;0.152;2023-12-29T08:42:44;3.80;;;1.80;;
84474;SDS011;74699;43.068;0.152;2023-12-29T08:45:10;3.40;;;1.42;;
84474;SDS011;74699;43.068;0.152;2023-12-29T08:47:36;3.92;;;1.60;;
84474;SDS011;74699;43.068;0.152;2023-12-29T08:50:03;3.17;;;1.65;;
84474;SDS011;74699;43.068;0.152;2023-12-29T08:52:29;4.10;;;1.60;;
84474;SDS011;74699;43.068;0.152;2023-12-29T08:54:55;3.60;;;1.83;;
84474;SDS011;74699;43.068;0.152;2023-12-29T08:57:21;4.90;;;2.20;;
84474;SDS011;74699;43.068;0.152;2023-12-29T08:59:47;4.93;;;2.25;;
84474;SDS011;74699;43.068;0.152;2023-12-29T09:02:13;4.80;;;2.30;;
84474;SDS011;74699;43.068;0.152;2023-12-29T09:04:39;3.63;;;2.20;;
84474;SDS011;74699;43.068;0.152;2023-12-29T09:07:05;9.52;;;4.55;;
84474;SDS011;74699;43.068;0.152;2023-12-29T09:09:31;8.85;;;4.20;;
84474;SDS011;74699;43.068;0.152;2023-12-29T09:11:57;6.43;;;3.53;;
84474;SDS011;74699;43.068;0.152;2023-12-29T09:14:23;7.50;;;3.85;;
84474;SDS011;74699;43.068;0.152;2023-12-29T09:16:49;6.78;;;3.92;;
84474;SDS011;74699;43.068;0.152;2023-12-29T09:19:15;6.53;;;3.90;;
84474;SDS011;74699;43.068;0.152;2023-12-29T09:21:41;6.75;;;3.55;;
84474;SDS011;74699;43.068;0.152;2023-12-29T09:24:07;6.78;;;3.83;;
84474;SDS011;74699;43.068;0.152;2023-12-29T09:26:34;7.43;;;3.42;;
84474;SDS011;74699;43.068;0.152;2023-12-29T09:29:01;7.05;;;3.92;;
84474;SDS011;74699;43.068;0.152;2023-12-29T09:31:27;10.35;;;6.47;;
84474;SDS011;74699;43.068;0.152;2023-12-29T09:33:53;10.98;;;6.40;;
84474;SDS011;74699;43.068;0.152;2023-12-29T09:36:19;8.45;;;6.13;;
84474;SDS011;74699;43.068;0.152;2023-12-29T09:38:45;10.55;;;6.75;;
84474;SDS011;74699;43.068;0.152;2023-12-29T09:41:13;11.40;;;5.70;;
84474;SDS011;74699;43.068;0.152;2023-12-29T09:43:40;10.15;;;6.28;;
84474;SDS011;74699;43.068;0.152;2023-12-29T09:46:09;8.73;;;5.93;;
84474;SDS011;74699;43.068;0.152;2023-12-29T09:48:36;10.50;;;6.07;;
84474;SDS011;74699;43.068;0.152;2023-12-29T09:51:04;7.82;;;5.10;;
84474;SDS011;74699;43.068;0.152;2023-12-29T09:53:31;9.68;;;5.90;;
84474;SDS011;74699;43.068;0.152;2023-12-29T09:55:58;9.80;;;6.28;;
84474;SDS011;74699;43.068;0.152;2023-12-29T10:00:52;15.32;;;7.10;;
84474;SDS011;74699;43.068;0.152;2023-12-29T10:03:18;13.50;;;7.65;;
84474;SDS011;74699;43.068;0.152;2023-12-29T10:05:44;14.43;;;6.68;;
84474;SDS011;74699;43.068;0.152;2023-12-29T10:08:14;8.73;;;4.93;;
84474;SDS011;74699;43.068;0.152;2023-12-29T10:10:41;6.45;;;3.90;;
84474;SDS011;74699;43.068;0.152;2023-12-29T10:13:08;6.82;;;3.83;;
84474;SDS011;74699;43.068;0.152;2023-12-29T10:15:42;8.10;;;4.78;;
84474;SDS011;74699;43.068;0.152;2023-12-29T10:21:02;6.30;;;3.13;;
84474;SDS011;74699;43.068;0.152;2023-12-29T10:23:34;5.30;;;3.63;;
84474;SDS011;74699;43.068;0.152;2023-12-29T10:26:02;6.80;;;3.70;;
84474;SDS011;74699;43.068;0.152;2023-12-29T10:28:28;10.52;;;4.25;;
84474;SDS011;74699;43.068;0.152;2023-12-29T10:30:54;7.03;;;4.60;;
84474;SDS011;74699;43.068;0.152;2023-12-29T10:33:21;8.57;;;4.72;;
84474;SDS011;74699;43.068;0.152;2023-12-29T10:35:59;7.88;;;5.63;;
84474;SDS011;74699;43.068;0.152;2023-12-29T10:38:27;9.52;;;5.53;;
84474;SDS011;74699;43.068;0.152;2023-12-29T10:40:54;12.68;;;7.10;;
84474;SDS011;74699;43.068;0.152;2023-12-29T10:43:23;12.38;;;6.68;;
84474;SDS011;74699;43.068;0.152;2023-12-29T10:45:49;8.63;;;6.10;;
84474;SDS011;74699;43.068;0.152;2023-12-29T10:48:31;9.27;;;6.28;;
84474;SDS011;74699;43.068;0.152;2023-12-29T10:50:57;12.32;;;7.82;;
84474;SDS011;74699;43.068;0.152;2023-12-29T10:53:25;9.90;;;7.28;;
84474;SDS011;74699;43.068;0.152;2023-12-29T10:55:51;12.15;;;7.07;;
84474;SDS011;74699;43.068;0.152;2023-12-29T10:58:17;9.73;;;7.18;;
84474;SDS011;74699;43.068;0.152;2023-12-29T11:00:44;9.65;;;6.90;;
84474;SDS011;74699;43.068;0.152;2023-12-29T11:03:19;11.65;;;7.55;;
84474;SDS011;74699;43.068;0.152;2023-12-29T11:05:45;8.25;;;5.05;;
84474;SDS011;74699;43.068;0.152;2023-12-29T11:08:19;8.20;;;4.53;;
84474;SDS011;74699;43.068;0.152;2023-12-29T11:10:47;7.13;;;4.13;;
84474;SDS011;74699;43.068;0.152;2023-12-29T11:13:13;7.50;;;4.82;;
84474;SDS011;74699;43.068;0.152;2023-12-29T11:15:41;7.88;;;4.50;;
84474;SDS011;74699;43.068;0.152;2023-12-29T11:18:10;8.55;;;4.90;;
84474;SDS011;74699;43.068;0.152;2023-12-29T11:20:37;7.80;;;4.93;;
84474;SDS011;74699;43.068;0.152;2023-12-29T11:23:04;8.30;;;4.45;;
84474;SDS011;74699;43.068;0.152;2023-12-29T11:25:32;7.10;;;4.57;;
84474;SDS011;74699;43.068;0.152;2023-12-29T11:27:58;9.82;;;5.78;;
84474;SDS011;74699;43.068;0.152;2023-12-29T11:30:24;9.05;;;6.00;;
84474;SDS011;74699;43.068;0.152;2023-12-29T11:32:57;10.13;;;6.07;;
84474;SDS011;74699;43.068;0.152;2023-12-29T11:35:28;11.45;;;7.00;;
84474;SDS011;74699;43.068;0.152;2023-12-29T11:42:54;10.00;;;6.32;;
84474;SDS011;74699;43.068;0.152;2023-12-29T11:45:24;8.95;;;6.30;;
84474;SDS011;74699;43.068;0.152;2023-12-29T11:47:51;11.20;;;6.57;;
84474;SDS011;74699;43.068;0.152;2023-12-29T11:50:31;9.75;;;6.13;;
84474;SDS011;74699;43.068;0.152;2023-12-29T11:52:58;7.85;;;5.53;;
84474;SDS011;74699;43.068;0.152;2023-12-29T11:55:31;8.80;;;5.70;;
84474;SDS011;74699;43.068;0.152;2023-12-29T11:57:58;12.80;;;6.15;;
84474;SDS011;74699;43.068;0.152;2023-12-29T12:00:44;11.00;;;5.60;;
84474;SDS011;74699;43.068;0.152;2023-12-29T12:05:49;8.77;;;5.22;;
84474;SDS011;74699;43.068;0.152;2023-12-29T12:10:55;9.20;;;4.68;;
84474;SDS011;74699;43.068;0.152;2023-12-29T12:13:42;8.05;;;3.78;;
84474;SDS011;74699;43.068;0.152;2023-12-29T12:16:07;9.73;;;4.47;;
84474;SDS011;74699;43.068;0.152;2023-12-29T12:18:33;7.18;;;3.95;;
84474;SDS011;74699;43.068;0.152;2023-12-29T12:20:59;7.60;;;3.85;;
84474;SDS011;74699;43.068;0.152;2023-12-29T12:25:56;7.53;;;3.70;;
84474;SDS011;74699;43.068;0.152;2023-12-29T12:28:24;8.45;;;3.55;;
84474;SDS011;74699;43.068;0.152;2023-12-29T12:30:50;7.75;;;3.85;;
84474;SDS011;74699;43.068;0.152;2023-12-29T12:33:19;7.80;;;3.65;;
84474;SDS011;74699;43.068;0.152;2023-12-29T12:35:45;7.50;;;3.65;;
84474;SDS011;74699;43.068;0.152;2023-12-29T12:38:15;5.80;;;2.80;;
84474;SDS011;74699;43.068;0.152;2023-12-29T12:40:49;5.00;;;2.92;;
84474;SDS011;74699;43.068;0.152;2023-12-29T12:43:15;5.32;;;2.78;;
84474;SDS011;74699;43.068;0.152;2023-12-29T12:45:43;4.93;;;2.65;;
84474;SDS011;74699;43.068;0.152;2023-12-29T12:48:23;22.90;;;15.30;;
84474;SDS011;74699;43.068;0.152;2023-12-29T12:50:49;4.80;;;2.85;;
84474;SDS011;74699;43.068;0.152;2023-12-29T12:53:15;4.97;;;2.58;;
84474;SDS011;74699;43.068;0.152;2023-12-29T12:55:49;4.50;;;2.45;;
84474;SDS011;74699;43.068;0.152;2023-12-29T12:58:16;4.93;;;2.60;;
84474;SDS011;74699;43.068;0.152;2023-12-29T13:00:43;4.80;;;2.10;;
84474;SDS011;74699;43.068;0.152;2023-12-29T13:03:09;5.47;;;2.60;;
84474;SDS011;74699;43.068;0.152;2023-12-29T13:05:36;4.25;;;2.00;;
84474;SDS011;74699;43.068;0.152;2023-12-29T13:10:28;4.40;;;1.90;;
84474;SDS011;74699;43.068;0.152;2023-12-29T13:12:55;5.22;;;2.05;;
84474;SDS011;74699;43.068;0.152;2023-12-29T13:15:21;3.90;;;1.65;;
84474;SDS011;74699;43.068;0.152;2023-12-29T13:20:14;2.75;;;1.40;;
84474;SDS011;74699;43.068;0.152;2023-12-29T13:22:40;2.95;;;1.45;;
84474;SDS011;74699;43.068;0.152;2023-12-29T13:25:06;3.00;;;1.60;;
84474;SDS011;74699;43.068;0.152;2023-12-29T13:27:33;3.47;;;1.65;;
84474;SDS011;74699;43.068;0.152;2023-12-29T13:29:59;4.45;;;1.70;;
84474;SDS011;74699;43.068;0.152;2023-12-29T13:32:25;3.20;;;1.42;;
84474;SDS011;74699;43.068;0.152;2023-12-29T13:35:04;4.03;;;1.77;;
84474;SDS011;74699;43.068;0.152;2023-12-29T13:37:46;3.00;;;1.30;;
84474;SDS011;74699;43.068;0.152;2023-12-29T13:42:48;4.78;;;2.10;;
84474;SDS011;74699;43.068;0.152;2023-12-29T13:45:16;5.10;;;1.98;;
84474;SDS011;74699;43.068;0.152;2023-12-29T13:47:43;5.35;;;2.10;;
84474;SDS011;74699;43.068;0.152;2023-12-29T13:50:10;4.95;;;2.10;;
84474;SDS011;74699;43.068;0.152;2023-12-29T13:52:39;4.05;;;1.58;;
84474;SDS011;74699;43.068;0.152;2023-12-29T13:55:05;3.72;;;1.60;;
84474;SDS011;74699;43.068;0.152;2023-12-29T13:57:35;3.67;;;1.85;;
84474;SDS011;74699;43.068;0.152;2023-12-29T14:00:16;4.15;;;1.40;;
84474;SDS011;74699;43.068;0.152;2023-12-29T14:03:22;3.63;;;1.75;;
84474;SDS011;74699;43.068;0.152;2023-12-29T14:10:31;4.15;;;1.85;;
84474;SDS011;74699;43.068;0.152;2023-12-29T14:13:30;5.88;;;2.08;;
84474;SDS011;74699;43.068;0.152;2023-12-29T14:15:49;3.05;;;1.15;;
84474;SDS011;74699;43.068;0.152;2023-12-29T14:18:26;5.10;;;1.30;;
84474;SDS011;74699;43.068;0.152;2023-12-29T14:20:57;4.45;;;1.60;;
84474;SDS011;74699;43.068;0.152;2023-12-29T14:23:24;4.47;;;1.85;;
84474;SDS011;74699;43.068;0.152;2023-12-29T14:25:50;3.90;;;2.03;;
84474;SDS011;74699;43.068;0.152;2023-12-29T14:28:18;4.15;;;2.10;;
84474;SDS011;74699;43.068;0.152;2023-12-29T14:30:44;4.20;;;1.60;;
84474;SDS011;74699;43.068;0.152;2023-12-29T14:33:11;4.97;;;1.83;;
84474;SDS011;74699;43.068;0.152;2023-12-29T14:35:37;4.78;;;2.15;;
84474;SDS011;74699;43.068;0.152;2023-12-29T14:38:03;4.03;;;1.95;;
84474;SDS011;74699;43.068;0.152;2023-12-29T14:40:29;4.47;;;1.90;;
84474;SDS011;74699;43.068;0.152;2023-12-29T14:42:59;4.22;;;2.20;;
84474;SDS011;74699;43.068;0.152;2023-12-29T14:45:25;5.50;;;2.42;;
84474;SDS011;74699;43.068;0.152;2023-12-29T14:47:54;6.18;;;3.42;;
84474;SDS011;74699;43.068;0.152;2023-12-29T14:50:20;6.80;;;2.80;;
84474;SDS011;74699;43.068;0.152;2023-12-29T14:52:46;6.35;;;2.78;;
84474;SDS011;74699;43.068;0.152;2023-12-29T14:55:13;4.80;;;2.55;;
84474;SDS011;74699;43.068;0.152;2023-12-29T14:57:39;5.78;;;2.63;;
84474;SDS011;74699;43.068;0.152;2023-12-29T15:00:05;5.88;;;2.60;;
84474;SDS011;74699;43.068;0.152;2023-12-29T15:02:31;5.63;;;3.03;;
84474;SDS011;74699;43.068;0.152;2023-12-29T15:04:57;5.95;;;2.53;;
84474;SDS011;74699;43.068;0.152;2023-12-29T15:07:23;5.60;;;2.13;;
84474;SDS011;74699;43.068;0.152;2023-12-29T15:09:54;5.03;;;2.03;;
84474;SDS011;74699;43.068;0.152;2023-12-29T15:12:20;4.43;;;2.20;;
84474;SDS011;74699;43.068;0.152;2023-12-29T15:14:46;5.28;;;2.15;;
84474;SDS011;74699;43.068;0.152;2023-12-29T15:17:12;5.35;;;2.08;;
84474;SDS011;74699;43.068;0.152;2023-12-29T15:19:38;4.18;;;2.08;;
84474;SDS011;74699;43.068;0.152;2023-12-29T15:22:04;5.70;;;2.25;;
84474;SDS011;74699;43.068;0.152;2023-12-29T15:24:31;6.18;;;2.75;;